Time;durP1;ratioP1;P1;durP2;ratioP2;P2;SDS_P1;SDS_P2;PMS_P1;PMS_P2;Temp;Humidity;BMP_temperature;BMP_pressure;BME280_temperature;BME280_humidity;BME280_pressure;Samples;Min_cycle;Max_cycle;Signal;HPM_P1;HPM_P2
2022/10/10 00:01:19;;;;;;;6.90;5.30;;;;;;;;;;5030547;28;20211;-73
2022/10/10 00:03:45;;;;;;;5.70;4.90;;;;;;;;;;5031239;28;20179;-72
2022/10/10 00:06:11;;;;;;;6.17;5.60;;;;;;;;;;5028313;28;20187;-71
2022/10/10 00:08:36;;;;;;;8.03;5.63;;;;;;;;;;5028250;28;20175;-72
2022/10/10 00:11:02;;;;;;;6.90;5.93;;;;;;;;;;5038885;28;20180;-72
2022/10/10 00:13:27;;;;;;;6.97;5.73;;;;;;;;;;5044221;28;20176;-71
2022/10/10 00:15:53;;;;;;;6.30;5.70;;;;;;;;;;5032842;28;20206;-72
2022/10/10 00:18:18;;;;;;;7.80;5.47;;;;;;;;;;5029502;28;20180;-72
2022/10/10 00:20:43;;;;;;;6.57;5.97;;;;;;;;;;5031298;28;20184;-72
2022/10/10 00:23:08;;;;;;;7.97;5.73;;;;;;;;;;5028629;28;20176;-71
2022/10/10 00:25:35;;;;;;;7.60;5.50;;;;;;;;;;5027747;28;20348;-72
2022/10/10 00:28:00;;;;;;;7.80;5.60;;;;;;;;;;5030726;28;20185;-72
2022/10/10 00:30:25;;;;;;;6.50;5.73;;;;;;;;;;5029021;28;20183;-72
2022/10/10 00:32:51;;;;;;;5.90;5.27;;;;;;;;;;5029558;28;20188;-73
2022/10/10 00:35:16;;;;;;;6.63;5.40;;;;;;;;;;5033913;28;20175;-72
2022/10/10 00:37:41;;;;;;;7.03;5.20;;;;;;;;;;5031260;28;20327;-72
2022/10/10 00:40:07;;;;;;;6.30;5.03;;;;;;;;;;5029773;28;20175;-72
2022/10/10 00:42:32;;;;;;;6.30;5.70;;;;;;;;;;5029194;28;20185;-72
2022/10/10 00:45:16;;;;;;;5.37;4.87;;;;;;;;;;5032168;28;20426;-72
2022/10/10 00:47:41;;;;;;;5.37;4.83;;;;;;;;;;5026989;28;20230;-72
2022/10/10 00:50:07;;;;;;;5.30;4.77;;;;;;;;;;5046160;28;20166;-73
2022/10/10 00:52:32;;;;;;;6.03;5.43;;;;;;;;;;5046246;28;20171;-72
2022/10/10 00:54:57;;;;;;;6.47;5.13;;;;;;;;;;5030445;28;20186;-72
2022/10/10 00:57:22;;;;;;;7.93;4.90;;;;;;;;;;5029600;28;20184;-71
2022/10/10 00:59:48;;;;;;;4.83;4.43;;;;;;;;;;5026549;28;20180;-72
2022/10/10 01:02:13;;;;;;;5.10;4.67;;;;;;;;;;5027451;28;20223;-72
2022/10/10 01:04:39;;;;;;;6.17;4.40;;;;;;;;;;5028590;28;20175;-72
2022/10/10 01:07:13;;;;;;;7.53;5.20;;;;;;;;;;5028689;28;20193;-72
2022/10/10 01:09:39;;;;;;;5.53;4.73;;;;;;;;;;5028485;28;20170;-73
2022/10/10 01:12:08;;;;;;;5.90;4.37;;;;;;;;;;5029708;28;20261;-72
2022/10/10 01:14:36;;;;;;;4.97;4.50;;;;;;;;;;5041031;28;20190;-72
2022/10/10 01:17:05;;;;;;;6.23;5.23;;;;;;;;;;5026690;28;20458;-72
2022/10/10 01:19:34;;;;;;;5.53;4.57;;;;;;;;;;5025897;28;20181;-72
2022/10/10 01:22:08;;;;;;;4.97;4.53;;;;;;;;;;5027209;28;20175;-72
2022/10/10 01:24:46;;;;;;;5.53;4.27;;;;;;;;;;5028541;28;20183;-73
2022/10/10 01:27:11;;;;;;;4.77;4.20;;;;;;;;;;5045519;28;20182;-72
2022/10/10 01:29:39;;;;;;;5.43;4.47;;;;;;;;;;5026546;28;20179;-72
2022/10/10 01:32:09;;;;;;;5.03;4.53;;;;;;;;;;5026830;28;20179;-72
2022/10/10 01:34:37;;;;;;;5.90;4.77;;;;;;;;;;5029796;28;20266;-72
2022/10/10 01:37:08;;;;;;;5.43;4.70;;;;;;;;;;5029721;28;20180;-73
2022/10/10 01:39:41;;;;;;;5.50;4.57;;;;;;;;;;5023023;28;20167;-72
2022/10/10 01:42:10;;;;;;;5.80;3.97;;;;;;;;;;5027449;28;20171;-72
2022/10/10 01:44:36;;;;;;;4.40;4.00;;;;;;;;;;5027223;28;20187;-71
2022/10/10 01:47:01;;;;;;;5.67;4.40;;;;;;;;;;5043976;28;20195;-72
2022/10/10 01:49:28;;;;;;;4.30;3.90;;;;;;;;;;5022038;28;20238;-71
2022/10/10 01:51:54;;;;;;;4.93;4.33;;;;;;;;;;5028812;28;20488;-72
2022/10/10 01:54:30;;;;;;;5.13;4.60;;;;;;;;;;5036334;28;20267;-72
2022/10/10 01:57:31;;;;;;;5.20;3.80;;;;;;;;;;5029450;28;20177;-72
2022/10/10 01:59:59;;;;;;;6.73;3.83;;;;;;;;;;4995917;28;20207;-72
2022/10/10 02:02:27;;;;;;;4.70;4.27;;;;;;;;;;5009725;28;20188;-71
2022/10/10 02:04:58;;;;;;;4.97;4.57;;;;;;;;;;4995890;28;20203;-73
2022/10/10 02:07:46;;;;;;;4.53;3.73;;;;;;;;;;5004063;28;20194;-72
2022/10/10 02:10:14;;;;;;;5.17;4.23;;;;;;;;;;5003401;28;20192;-72
2022/10/10 02:12:39;;;;;;;7.00;3.90;;;;;;;;;;5019095;28;20267;-73
2022/10/10 02:15:10;;;;;;;6.00;4.00;;;;;;;;;;5007028;28;20283;-72
2022/10/10 02:17:37;;;;;;;5.43;3.50;;;;;;;;;;4983529;28;20184;-72
2022/10/10 02:20:05;;;;;;;3.73;3.43;;;;;;;;;;5004848;28;20206;-72
2022/10/10 02:22:30;;;;;;;3.50;3.10;;;;;;;;;;5018391;28;20171;-72
2022/10/10 02:24:55;;;;;;;9.50;3.60;;;;;;;;;;5012262;28;20205;-72
2022/10/10 02:27:25;;;;;;;5.40;3.07;;;;;;;;;;5024136;28;20195;-72
2022/10/10 02:29:51;;;;;;;3.87;3.20;;;;;;;;;;5014349;28;20216;-72
2022/10/10 02:32:19;;;;;;;4.57;3.00;;;;;;;;;;4998020;28;20187;-72
2022/10/10 02:34:46;;;;;;;3.57;3.27;;;;;;;;;;5025856;28;20233;-72
2022/10/10 02:37:13;;;;;;;4.67;4.27;;;;;;;;;;5033389;28;20255;-72
2022/10/10 02:39:41;;;;;;;4.43;3.20;;;;;;;;;;5030663;28;20194;-72
2022/10/10 02:42:07;;;;;;;3.33;3.07;;;;;;;;;;5032166;28;20179;-72
2022/10/10 02:44:32;;;;;;;5.00;3.13;;;;;;;;;;5030843;28;20221;-71
2022/10/10 02:46:57;;;;;;;6.67;3.83;;;;;;;;;;5032428;28;20234;-73
2022/10/10 02:49:33;;;;;;;5.40;3.50;;;;;;;;;;5044461;28;20303;-73
2022/10/10 02:51:58;;;;;;;3.63;3.33;;;;;;;;;;5045041;28;21039;-72
2022/10/10 02:54:23;;;;;;;4.43;4.00;;;;;;;;;;5028821;28;20187;-72
2022/10/10 02:56:48;;;;;;;4.50;3.30;;;;;;;;;;5048379;28;20203;-72
2022/10/10 02:59:14;;;;;;;3.50;2.97;;;;;;;;;;5033761;28;20175;-72
2022/10/10 03:01:39;;;;;;;5.47;3.77;;;;;;;;;;5030960;28;20178;-72
2022/10/10 03:04:04;;;;;;;4.60;3.20;;;;;;;;;;5033064;28;20175;-71
2022/10/10 03:06:30;;;;;;;4.03;3.43;;;;;;;;;;5031157;28;20190;-72
2022/10/10 03:08:55;;;;;;;3.90;3.40;;;;;;;;;;5048120;28;20182;-72
2022/10/10 03:11:20;;;;;;;3.80;3.47;;;;;;;;;;5029809;28;20174;-73
2022/10/10 03:13:45;;;;;;;6.10;3.67;;;;;;;;;;5031574;28;20206;-72
2022/10/10 03:16:10;;;;;;;3.13;2.90;;;;;;;;;;5048973;28;20214;-73
2022/10/10 03:18:36;;;;;;;3.80;3.07;;;;;;;;;;5029838;28;20270;-71
2022/10/10 03:21:02;;;;;;;5.97;3.53;;;;;;;;;;5047478;28;20218;-72
2022/10/10 03:23:27;;;;;;;3.90;2.90;;;;;;;;;;5035696;28;20190;-72
2022/10/10 03:25:52;;;;;;;5.40;3.27;;;;;;;;;;5029332;28;20198;-73
2022/10/10 03:28:17;;;;;;;3.83;2.93;;;;;;;;;;5026913;28;20248;-72
2022/10/10 03:30:43;;;;;;;4.37;2.80;;;;;;;;;;5031454;28;20184;-72
2022/10/10 03:33:08;;;;;;;4.20;3.50;;;;;;;;;;5035131;28;20249;-72
2022/10/10 03:35:34;;;;;;;4.17;3.77;;;;;;;;;;5032047;28;20222;-72
2022/10/10 03:38:00;;;;;;;6.70;4.43;;;;;;;;;;5030840;28;20187;-71
2022/10/10 03:40:26;;;;;;;6.73;5.60;;;;;;;;;;5032512;28;24669;-72
2022/10/10 03:42:51;;;;;;;3.60;3.30;;;;;;;;;;5030394;28;20179;-72
2022/10/10 03:45:16;;;;;;;5.70;3.50;;;;;;;;;;5033065;28;20191;-72
2022/10/10 03:47:41;;;;;;;3.67;3.37;;;;;;;;;;5030837;28;20243;-72
2022/10/10 03:50:07;;;;;;;4.23;3.27;;;;;;;;;;5029196;28;20183;-73
2022/10/10 03:52:32;;;;;;;3.30;3.00;;;;;;;;;;5033176;28;20234;-72
2022/10/10 03:54:57;;;;;;;4.23;3.20;;;;;;;;;;5030648;28;20182;-72
2022/10/10 03:57:23;;;;;;;6.10;3.47;;;;;;;;;;5030114;28;20180;-72
2022/10/10 03:59:48;;;;;;;5.50;3.73;;;;;;;;;;5029616;28;20243;-72
2022/10/10 04:02:13;;;;;;;6.17;3.30;;;;;;;;;;5028905;28;20202;-71
2022/10/10 04:04:38;;;;;;;5.50;3.07;;;;;;;;;;5031442;28;20194;-72
2022/10/10 04:07:04;;;;;;;4.40;3.47;;;;;;;;;;5031393;28;20187;-72
2022/10/10 04:09:29;;;;;;;4.53;3.43;;;;;;;;;;5029627;28;20198;-72
2022/10/10 04:11:54;;;;;;;6.07;3.50;;;;;;;;;;5026546;28;20269;-72
2022/10/10 04:14:19;;;;;;;6.03;3.77;;;;;;;;;;5028347;28;20189;-71
2022/10/10 04:16:44;;;;;;;7.53;3.40;;;;;;;;;;5022950;28;20183;-72
2022/10/10 04:19:10;;;;;;;6.77;3.67;;;;;;;;;;5043944;28;20186;-72
2022/10/10 04:21:35;;;;;;;8.40;3.87;;;;;;;;;;5028626;28;20194;-72
2022/10/10 04:24:00;;;;;;;5.00;4.50;;;;;;;;;;5026011;28;20207;-72
2022/10/10 04:26:26;;;;;;;6.57;4.33;;;;;;;;;;5046341;28;20203;-72
2022/10/10 04:28:51;;;;;;;4.83;3.33;;;;;;;;;;5028541;28;20218;-73
2022/10/10 04:31:16;;;;;;;7.37;4.20;;;;;;;;;;5027430;28;20179;-72
2022/10/10 04:33:41;;;;;;;5.80;4.67;;;;;;;;;;5026551;28;20175;-71
2022/10/10 04:36:07;;;;;;;6.83;3.60;;;;;;;;;;5028179;28;20266;-72
2022/10/10 04:38:32;;;;;;;3.97;3.23;;;;;;;;;;5032098;28;20177;-73
2022/10/10 04:40:57;;;;;;;5.37;2.90;;;;;;;;;;5029707;28;20451;-72
2022/10/10 04:43:23;;;;;;;3.60;3.20;;;;;;;;;;5030462;28;20178;-72
2022/10/10 04:45:48;;;;;;;6.87;3.70;;;;;;;;;;5031822;28;20439;-72
2022/10/10 04:48:13;;;;;;;5.40;3.73;;;;;;;;;;5031134;28;20226;-72
2022/10/10 04:50:39;;;;;;;5.93;3.33;;;;;;;;;;5028458;28;20175;-72
2022/10/10 04:53:04;;;;;;;9.90;3.20;;;;;;;;;;5031489;28;20181;-72
2022/10/10 04:55:29;;;;;;;6.73;4.37;;;;;;;;;;5028819;28;20190;-72
2022/10/10 04:57:54;;;;;;;8.47;4.53;;;;;;;;;;5045156;28;20233;-72
2022/10/10 05:00:20;;;;;;;9.07;4.43;;;;;;;;;;5028192;28;20186;-72
2022/10/10 05:02:45;;;;;;;5.40;3.97;;;;;;;;;;5028144;28;20187;-71
2022/10/10 05:05:10;;;;;;;4.50;4.00;;;;;;;;;;5043608;28;20278;-73
2022/10/10 05:07:36;;;;;;;4.97;3.90;;;;;;;;;;5024673;28;20208;-77
2022/10/10 05:10:01;;;;;;;7.17;4.50;;;;;;;;;;5027280;28;20476;-77
2022/10/10 05:12:26;;;;;;;7.37;5.50;;;;;;;;;;5029185;28;20180;-77
2022/10/10 05:14:51;;;;;;;6.43;5.13;;;;;;;;;;5030169;28;20186;-77
2022/10/10 05:17:17;;;;;;;11.43;6.53;;;;;;;;;;5028636;28;20191;-78
2022/10/10 05:19:42;;;;;;;7.43;5.83;;;;;;;;;;5030157;28;20190;-78
2022/10/10 05:22:07;;;;;;;7.23;4.97;;;;;;;;;;5029350;28;20196;-77
2022/10/10 05:24:33;;;;;;;9.80;7.13;;;;;;;;;;5027942;28;20199;-77
2022/10/10 05:26:58;;;;;;;9.40;8.10;;;;;;;;;;5029496;28;20179;-77
2022/10/10 05:29:23;;;;;;;8.70;7.20;;;;;;;;;;5026650;28;20177;-77
2022/10/10 05:31:48;;;;;;;6.53;5.33;;;;;;;;;;5025143;28;20185;-77
2022/10/10 05:34:14;;;;;;;7.87;5.80;;;;;;;;;;5028871;28;20274;-77
2022/10/10 05:36:39;;;;;;;9.83;6.00;;;;;;;;;;5029914;28;20177;-77
2022/10/10 05:39:05;;;;;;;6.13;4.90;;;;;;;;;;5029924;28;20183;-77
2022/10/10 05:41:30;;;;;;;11.00;5.73;;;;;;;;;;5045647;28;20205;-78
2022/10/10 05:43:55;;;;;;;6.47;4.80;;;;;;;;;;5028177;28;20190;-77
2022/10/10 05:46:23;;;;;;;5.13;3.87;;;;;;;;;;5052045;28;20222;-77
2022/10/10 05:48:48;;;;;;;5.93;4.10;;;;;;;;;;5033286;28;20226;-78
2022/10/10 05:51:13;;;;;;;5.50;3.90;;;;;;;;;;5048812;28;20179;-78
2022/10/10 05:53:39;;;;;;;6.07;4.23;;;;;;;;;;5034136;28;20176;-77
2022/10/10 05:56:04;;;;;;;5.20;4.37;;;;;;;;;;5031692;28;20238;-77
2022/10/10 05:58:29;;;;;;;7.57;5.30;;;;;;;;;;5032106;28;20187;-77
2022/10/10 06:01:00;;;;;;;12.67;4.93;;;;;;;;;;5030889;28;20187;-77
2022/10/10 06:03:25;;;;;;;6.97;4.70;;;;;;;;;;5033636;28;20197;-77
2022/10/10 06:05:51;;;;;;;5.40;4.03;;;;;;;;;;5031627;28;20196;-77
2022/10/10 06:08:16;;;;;;;5.73;3.97;;;;;;;;;;5035618;28;20175;-78
2022/10/10 06:10:43;;;;;;;6.60;4.37;;;;;;;;;;5031348;28;20272;-78
2022/10/10 06:13:09;;;;;;;7.60;4.17;;;;;;;;;;5030600;28;20172;-78
2022/10/10 06:15:34;;;;;;;5.93;4.17;;;;;;;;;;5030494;28;20253;-77
2022/10/10 06:17:59;;;;;;;4.57;3.37;;;;;;;;;;5049628;28;20300;-77
2022/10/10 06:20:24;;;;;;;6.63;4.00;;;;;;;;;;5030305;28;20187;-77
2022/10/10 06:22:50;;;;;;;6.13;4.00;;;;;;;;;;5043178;28;20192;-77
2022/10/10 06:25:15;;;;;;;5.83;4.03;;;;;;;;;;5027897;28;20206;-78
2022/10/10 06:27:41;;;;;;;6.77;3.63;;;;;;;;;;5044417;28;20172;-78
2022/10/10 06:30:06;;;;;;;5.93;3.70;;;;;;;;;;5030070;28;20270;-77
2022/10/10 06:32:31;;;;;;;7.10;4.00;;;;;;;;;;5030314;28;20178;-77
2022/10/10 06:34:57;;;;;;;5.47;4.17;;;;;;;;;;5030302;28;20236;-78
2022/10/10 06:37:22;;;;;;;4.47;3.97;;;;;;;;;;5033324;28;20531;-77
2022/10/10 06:39:47;;;;;;;11.10;4.20;;;;;;;;;;5029823;28;20180;-78
2022/10/10 06:42:12;;;;;;;8.47;4.30;;;;;;;;;;5047854;28;20191;-77
2022/10/10 06:44:38;;;;;;;6.60;3.97;;;;;;;;;;5030987;28;20202;-78
2022/10/10 06:47:03;;;;;;;4.97;3.70;;;;;;;;;;5033289;28;20277;-78
2022/10/10 06:49:28;;;;;;;6.17;3.73;;;;;;;;;;5031973;28;20295;-78
2022/10/10 06:51:53;;;;;;;7.90;3.70;;;;;;;;;;5029948;28;20194;-78
2022/10/10 06:54:19;;;;;;;8.33;3.90;;;;;;;;;;5035645;28;20219;-78
2022/10/10 06:56:44;;;;;;;6.43;3.93;;;;;;;;;;5029625;28;20188;-77
2022/10/10 06:59:09;;;;;;;6.23;4.10;;;;;;;;;;5026354;28;20248;-78
2022/10/10 07:01:34;;;;;;;8.90;3.63;;;;;;;;;;5026884;28;20192;-78
2022/10/10 07:04:00;;;;;;;7.13;4.20;;;;;;;;;;5032740;28;20188;-77
2022/10/10 07:06:25;;;;;;;4.13;3.27;;;;;;;;;;5027377;28;20207;-77
2022/10/10 07:08:50;;;;;;;4.97;3.63;;;;;;;;;;5031792;28;20209;-78
2022/10/10 07:11:16;;;;;;;3.33;2.93;;;;;;;;;;5030630;28;20182;-78
2022/10/10 07:13:41;;;;;;;6.80;3.90;;;;;;;;;;5032113;28;20232;-78
2022/10/10 07:16:06;;;;;;;5.33;3.73;;;;;;;;;;5026905;28;20218;-78
2022/10/10 07:18:32;;;;;;;5.37;3.17;;;;;;;;;;5032247;28;20188;-78
2022/10/10 07:20:58;;;;;;;4.07;3.40;;;;;;;;;;5033167;28;20182;-78
2022/10/10 07:23:24;;;;;;;6.00;3.80;;;;;;;;;;5032408;28;20212;-78
2022/10/10 07:25:49;;;;;;;4.40;3.57;;;;;;;;;;5030505;28;20228;-78
2022/10/10 07:28:15;;;;;;;5.97;3.40;;;;;;;;;;5032011;28;20262;-78
2022/10/10 07:30:42;;;;;;;6.00;3.80;;;;;;;;;;5031547;28;20183;-78
2022/10/10 07:33:12;;;;;;;5.30;3.23;;;;;;;;;;5044090;28;20176;-78
2022/10/10 07:35:37;;;;;;;3.00;2.70;;;;;;;;;;5029971;28;20194;-78
2022/10/10 07:38:03;;;;;;;5.47;3.43;;;;;;;;;;5027805;28;20186;-78
2022/10/10 07:40:28;;;;;;;5.53;3.47;;;;;;;;;;5031217;28;20179;-78
2022/10/10 07:42:53;;;;;;;6.90;3.63;;;;;;;;;;5032239;28;20178;-78
2022/10/10 07:45:18;;;;;;;3.87;3.23;;;;;;;;;;5032584;28;20217;-78
2022/10/10 07:47:44;;;;;;;5.03;3.07;;;;;;;;;;5037699;28;20230;-78
2022/10/10 07:50:10;;;;;;;6.50;3.10;;;;;;;;;;5028370;28;20283;-78
2022/10/10 07:52:35;;;;;;;3.50;3.20;;;;;;;;;;5027849;28;20174;-78
2022/10/10 07:55:01;;;;;;;4.07;3.17;;;;;;;;;;5026880;28;20192;-78
2022/10/10 07:57:26;;;;;;;5.20;3.30;;;;;;;;;;5030047;28;20194;-78
2022/10/10 07:59:51;;;;;;;4.13;3.30;;;;;;;;;;5030522;28;20175;-78
2022/10/10 08:02:16;;;;;;;5.03;3.00;;;;;;;;;;5048307;28;20269;-78
2022/10/10 08:04:42;;;;;;;6.03;3.27;;;;;;;;;;5029816;28;20273;-78
2022/10/10 08:07:08;;;;;;;3.50;3.20;;;;;;;;;;5044976;28;20213;-78
2022/10/10 08:09:33;;;;;;;6.10;3.27;;;;;;;;;;5027545;28;20178;-78
2022/10/10 08:11:58;;;;;;;6.47;4.33;;;;;;;;;;5031558;28;20192;-78
2022/10/10 08:14:23;;;;;;;4.80;3.27;;;;;;;;;;5027489;28;20189;-78
2022/10/10 08:16:49;;;;;;;5.33;2.77;;;;;;;;;;5028717;28;20190;-78
2022/10/10 08:19:14;;;;;;;5.37;3.67;;;;;;;;;;5030704;28;20189;-78
2022/10/10 08:21:39;;;;;;;6.27;2.93;;;;;;;;;;5030338;28;20216;-78
2022/10/10 08:24:04;;;;;;;3.90;2.60;;;;;;;;;;5045027;28;20181;-78
2022/10/10 08:26:30;;;;;;;3.70;2.90;;;;;;;;;;5030165;28;20223;-78
2022/10/10 08:28:55;;;;;;;5.23;3.30;;;;;;;;;;5027096;28;20179;-78
2022/10/10 08:31:21;;;;;;;4.83;3.00;;;;;;;;;;5030135;28;20184;-79
2022/10/10 08:33:47;;;;;;;4.03;2.50;;;;;;;;;;5047494;28;20185;-78
2022/10/10 08:36:14;;;;;;;4.20;2.60;;;;;;;;;;5023122;28;20184;-78
2022/10/10 08:38:39;;;;;;;5.93;2.70;;;;;;;;;;5031310;28;20246;-78
2022/10/10 08:41:09;;;;;;;6.80;3.07;;;;;;;;;;5030269;28;20343;-78
2022/10/10 08:43:39;;;;;;;6.50;3.77;;;;;;;;;;5022086;28;20183;-78
2022/10/10 08:46:17;;;;;;;4.40;2.63;;;;;;;;;;5029340;28;20198;-78
2022/10/10 08:48:42;;;;;;;3.97;3.00;;;;;;;;;;5027184;28;20295;-78
2022/10/10 08:51:11;;;;;;;5.73;3.30;;;;;;;;;;5029861;28;20382;-78
2022/10/10 08:53:42;;;;;;;5.60;2.87;;;;;;;;;;5042941;28;20182;-79
2022/10/10 08:56:10;;;;;;;5.37;2.77;;;;;;;;;;5041221;28;20229;-78
2022/10/10 08:58:37;;;;;;;3.13;2.83;;;;;;;;;;5028427;28;20204;-78
2022/10/10 09:01:02;;;;;;;4.43;3.30;;;;;;;;;;5041068;28;20192;-79
2022/10/10 09:03:48;;;;;;;7.00;3.20;;;;;;;;;;5043197;28;20185;-78
2022/10/10 09:06:13;;;;;;;7.27;2.67;;;;;;;;;;5029240;28;20252;-78
2022/10/10 09:08:57;;;;;;;5.00;2.97;;;;;;;;;;5028108;28;20214;-78
2022/10/10 09:11:22;;;;;;;7.43;2.73;;;;;;;;;;5043079;28;20180;-78
2022/10/10 09:13:56;;;;;;;4.83;2.77;;;;;;;;;;5029227;28;20187;-79
2022/10/10 09:16:40;;;;;;;4.80;2.60;;;;;;;;;;5021219;28;20183;-79
2022/10/10 09:19:14;;;;;;;4.07;2.90;;;;;;;;;;5029259;28;20177;-78
2022/10/10 09:21:40;;;;;;;5.17;2.60;;;;;;;;;;5030794;28;20185;-78
2022/10/10 09:24:31;;;;;;;4.60;2.50;;;;;;;;;;5029387;28;20192;-79
2022/10/10 09:27:16;;;;;;;4.27;2.30;;;;;;;;;;5000936;28;20217;-79
2022/10/10 09:29:48;;;;;;;4.10;2.53;;;;;;;;;;5022381;28;20220;-78
2022/10/10 09:32:17;;;;;;;8.33;3.27;;;;;;;;;;5026029;28;20182;-78
2022/10/10 09:34:44;;;;;;;4.07;2.80;;;;;;;;;;5028672;28;20181;-78
2022/10/10 09:37:14;;;;;;;5.50;2.93;;;;;;;;;;5032963;28;20209;-79
2022/10/10 09:39:47;;;;;;;5.27;2.47;;;;;;;;;;5030369;28;20177;-78
2022/10/10 09:42:13;;;;;;;5.60;3.13;;;;;;;;;;5029553;28;20188;-79
2022/10/10 09:44:39;;;;;;;8.37;2.97;;;;;;;;;;5029996;28;20182;-79
2022/10/10 09:47:04;;;;;;;8.03;2.73;;;;;;;;;;5037274;28;20218;-78
2022/10/10 09:49:30;;;;;;;12.00;3.20;;;;;;;;;;5043652;28;20232;-79
2022/10/10 09:51:55;;;;;;;12.13;3.97;;;;;;;;;;5029347;28;20181;-79
2022/10/10 09:54:20;;;;;;;8.10;3.10;;;;;;;;;;5032816;28;20261;-79
2022/10/10 09:56:53;;;;;;;9.50;3.03;;;;;;;;;;5022081;28;20203;-79
2022/10/10 09:59:34;;;;;;;8.57;3.20;;;;;;;;;;5029354;28;20243;-79
2022/10/10 10:02:01;;;;;;;10.03;3.30;;;;;;;;;;5040140;28;20183;-79
2022/10/10 10:04:30;;;;;;;10.83;3.63;;;;;;;;;;5026885;28;20180;-79
2022/10/10 10:07:16;;;;;;;9.10;3.40;;;;;;;;;;5025546;28;20526;-79
2022/10/10 10:09:45;;;;;;;14.03;4.27;;;;;;;;;;5028035;28;20177;-79
2022/10/10 10:12:12;;;;;;;12.23;3.57;;;;;;;;;;5027210;28;20182;-79
2022/10/10 10:14:37;;;;;;;12.70;3.40;;;;;;;;;;5027457;28;20240;-79
2022/10/10 10:17:07;;;;;;;9.40;3.60;;;;;;;;;;5039743;28;20271;-79
2022/10/10 10:19:34;;;;;;;16.00;4.10;;;;;;;;;;5027284;28;20179;-79
2022/10/10 10:21:59;;;;;;;11.73;3.20;;;;;;;;;;5028551;28;20191;-79
2022/10/10 10:24:28;;;;;;;11.20;3.17;;;;;;;;;;5043244;28;20236;-80
2022/10/10 10:26:54;;;;;;;11.27;3.80;;;;;;;;;;5027523;28;20204;-79
2022/10/10 10:29:32;;;;;;;12.30;3.70;;;;;;;;;;5029146;28;20229;-79
2022/10/10 10:32:16;;;;;;;13.23;4.73;;;;;;;;;;5030030;28;20205;-79
2022/10/10 10:34:41;;;;;;;13.70;4.47;;;;;;;;;;5025083;28;20172;-80
2022/10/10 10:37:15;;;;;;;8.37;3.53;;;;;;;;;;5031704;28;20253;-79
2022/10/10 10:39:45;;;;;;;11.10;3.90;;;;;;;;;;5027410;28;20177;-79
2022/10/10 10:42:31;;;;;;;7.47;3.13;;;;;;;;;;5032499;28;20176;-79
2022/10/10 10:45:06;;;;;;;13.23;3.27;;;;;;;;;;5045893;28;20280;-79
2022/10/10 10:47:37;;;;;;;14.37;3.90;;;;;;;;;;5031419;28;20211;-80
2022/10/10 10:50:14;;;;;;;12.30;3.20;;;;;;;;;;5032167;28;20185;-79
2022/10/10 10:52:54;;;;;;;15.17;4.07;;;;;;;;;;5043413;28;20255;-79
2022/10/10 10:55:29;;;;;;;14.60;4.03;;;;;;;;;;5042847;28;20182;-79
2022/10/10 10:58:06;;;;;;;15.90;3.77;;;;;;;;;;5026773;28;20187;-79
2022/10/10 11:00:35;;;;;;;15.53;3.13;;;;;;;;;;5030669;28;20185;-80
2022/10/10 11:03:03;;;;;;;13.90;3.77;;;;;;;;;;5029911;28;20203;-80
2022/10/10 11:05:28;;;;;;;10.77;4.03;;;;;;;;;;5044091;28;20210;-80
2022/10/10 11:08:09;;;;;;;7.93;3.13;;;;;;;;;;5030804;28;20173;-80
2022/10/10 11:10:44;;;;;;;10.83;3.07;;;;;;;;;;5030018;28;20182;-80
2022/10/10 11:13:18;;;;;;;12.47;4.27;;;;;;;;;;5028881;28;20198;-80
2022/10/10 11:15:51;;;;;;;11.00;3.07;;;;;;;;;;5031138;28;20186;-79
2022/10/10 11:18:42;;;;;;;12.30;3.97;;;;;;;;;;5032457;28;20256;-80
2022/10/10 11:21:12;;;;;;;11.83;4.13;;;;;;;;;;4993656;28;20199;-80
2022/10/10 11:23:43;;;;;;;11.60;3.67;;;;;;;;;;5047897;28;20190;-80
2022/10/10 11:26:27;;;;;;;11.80;4.03;;;;;;;;;;5029802;28;20198;-80
2022/10/10 11:28:52;;;;;;;8.97;3.97;;;;;;;;;;5026553;28;20205;-80
2022/10/10 11:31:22;;;;;;;14.63;3.97;;;;;;;;;;5030322;28;20273;-80
2022/10/10 11:33:51;;;;;;;12.73;4.30;;;;;;;;;;5031758;28;20235;-80
2022/10/10 11:36:18;;;;;;;8.97;4.10;;;;;;;;;;5029370;28;20249;-80
2022/10/10 11:39:02;;;;;;;15.07;3.40;;;;;;;;;;5031583;28;20178;-80
2022/10/10 11:41:31;;;;;;;10.80;4.10;;;;;;;;;;5030538;28;20264;-80
2022/10/10 11:44:00;;;;;;;16.10;4.00;;;;;;;;;;5032252;28;20290;-80
2022/10/10 11:46:35;;;;;;;10.87;3.53;;;;;;;;;;5031519;28;20220;-80
2022/10/10 11:49:01;;;;;;;9.57;3.43;;;;;;;;;;5029300;28;20279;-80
2022/10/10 11:51:33;;;;;;;13.50;3.70;;;;;;;;;;5029343;28;20224;-80
2022/10/10 11:54:00;;;;;;;14.00;5.33;;;;;;;;;;5031840;28;20440;-80
2022/10/10 11:56:34;;;;;;;10.87;4.70;;;;;;;;;;5029755;28;20243;-80
2022/10/10 11:59:03;;;;;;;10.43;2.83;;;;;;;;;;5030386;28;20187;-80
2022/10/10 12:01:34;;;;;;;9.83;3.47;;;;;;;;;;5027245;28;20192;-79
2022/10/10 12:03:59;;;;;;;8.53;2.90;;;;;;;;;;5024416;28;20189;-80
2022/10/10 12:06:33;;;;;;;10.70;3.53;;;;;;;;;;5028965;28;20206;-79
2022/10/10 12:09:08;;;;;;;13.10;4.70;;;;;;;;;;5026050;28;20186;-80
2022/10/10 12:11:42;;;;;;;12.17;3.73;;;;;;;;;;5029810;28;20267;-80
2022/10/10 12:14:08;;;;;;;13.33;3.67;;;;;;;;;;5030765;28;20179;-79
2022/10/10 12:16:36;;;;;;;11.77;3.23;;;;;;;;;;5029352;28;20185;-80
2022/10/10 12:19:07;;;;;;;10.03;3.80;;;;;;;;;;5030509;28;20174;-80
2022/10/10 12:21:51;;;;;;;10.43;4.00;;;;;;;;;;5024663;28;20249;-80
2022/10/10 12:24:16;;;;;;;11.67;4.20;;;;;;;;;;5029797;28;20179;-80
2022/10/10 12:26:54;;;;;;;10.40;4.00;;;;;;;;;;5028700;28;20230;-80
2022/10/10 12:29:38;;;;;;;14.87;3.90;;;;;;;;;;5028985;28;20385;-80
2022/10/10 12:32:12;;;;;;;9.57;3.77;;;;;;;;;;5030349;28;20188;-80
2022/10/10 12:34:47;;;;;;;10.30;3.50;;;;;;;;;;5025487;28;20179;-80
2022/10/10 12:37:20;;;;;;;12.23;3.33;;;;;;;;;;5026906;28;20216;-80
2022/10/10 12:40:18;;;;;;;8.20;3.40;;;;;;;;;;5027001;28;20184;-80
2022/10/10 12:42:46;;;;;;;13.13;3.67;;;;;;;;;;5015923;28;20326;-79
2022/10/10 12:45:27;;;;;;;10.80;4.57;;;;;;;;;;5026229;28;20211;-80
2022/10/10 12:47:53;;;;;;;11.03;3.77;;;;;;;;;;5029693;28;20232;-80
2022/10/10 12:50:25;;;;;;;11.67;4.33;;;;;;;;;;5022858;28;20178;-80
2022/10/10 12:52:53;;;;;;;13.97;4.97;;;;;;;;;;5024819;28;20206;-80
2022/10/10 12:55:20;;;;;;;13.50;3.77;;;;;;;;;;5027945;28;20187;-80
2022/10/10 12:57:47;;;;;;;9.93;3.47;;;;;;;;;;5030433;28;20183;-81
2022/10/10 13:00:12;;;;;;;15.10;3.57;;;;;;;;;;5027334;28;20221;-81
2022/10/10 13:02:41;;;;;;;11.50;3.70;;;;;;;;;;5024580;28;20220;-78
2022/10/10 13:05:07;;;;;;;13.40;3.63;;;;;;;;;;5040549;28;20196;-78
2022/10/10 13:07:32;;;;;;;12.53;4.13;;;;;;;;;;5028037;28;20179;-78
2022/10/10 13:10:04;;;;;;;10.80;3.83;;;;;;;;;;5026771;28;20400;-78
2022/10/10 13:12:31;;;;;;;12.17;4.13;;;;;;;;;;5042826;28;20225;-79
2022/10/10 13:14:56;;;;;;;12.27;3.93;;;;;;;;;;5027689;28;20182;-78
2022/10/10 13:17:29;;;;;;;11.50;3.70;;;;;;;;;;5026533;28;20181;-78
2022/10/10 13:19:55;;;;;;;7.07;3.23;;;;;;;;;;5027404;28;20171;-78
2022/10/10 13:22:21;;;;;;;10.20;4.20;;;;;;;;;;5044991;28;20385;-78
2022/10/10 13:24:46;;;;;;;13.67;4.80;;;;;;;;;;5029971;28;20214;-78
2022/10/10 13:27:32;;;;;;;8.37;2.93;;;;;;;;;;5043860;28;20195;-79
2022/10/10 13:29:57;;;;;;;9.27;3.30;;;;;;;;;;5024975;28;20178;-78
2022/10/10 13:32:24;;;;;;;13.67;3.70;;;;;;;;;;5041854;28;20185;-79
2022/10/10 13:35:16;;;;;;;10.00;3.90;;;;;;;;;;5026552;28;20182;-78
2022/10/10 13:37:41;;;;;;;11.73;4.77;;;;;;;;;;5029112;28;20186;-78
2022/10/10 13:40:13;;;;;;;10.00;3.70;;;;;;;;;;5028970;28;20182;-79
2022/10/10 13:42:39;;;;;;;8.83;3.57;;;;;;;;;;5027334;28;20178;-78
2022/10/10 13:45:22;;;;;;;10.43;4.50;;;;;;;;;;5031086;28;20172;-78
2022/10/10 13:47:48;;;;;;;12.60;4.00;;;;;;;;;;5038358;28;20233;-78
2022/10/10 13:50:32;;;;;;;16.30;4.10;;;;;;;;;;5024906;28;20209;-79
2022/10/10 13:53:16;;;;;;;11.10;3.53;;;;;;;;;;5022815;28;20172;-78
2022/10/10 13:55:41;;;;;;;10.57;3.73;;;;;;;;;;5024194;28;20181;-79
2022/10/10 13:58:08;;;;;;;11.57;3.40;;;;;;;;;;5028825;28;20197;-79
2022/10/10 14:00:34;;;;;;;10.03;4.03;;;;;;;;;;5028312;28;20188;-79
2022/10/10 14:02:59;;;;;;;12.00;3.73;;;;;;;;;;5024951;28;20184;-79
2022/10/10 14:05:29;;;;;;;11.20;3.17;;;;;;;;;;5028910;28;20221;-79
2022/10/10 14:07:55;;;;;;;10.27;3.33;;;;;;;;;;5032358;28;20180;-79
2022/10/10 14:10:22;;;;;;;8.73;3.53;;;;;;;;;;5032792;28;20240;-79
2022/10/10 14:12:49;;;;;;;11.40;3.60;;;;;;;;;;5029973;28;20188;-78
2022/10/10 14:15:33;;;;;;;11.67;3.30;;;;;;;;;;5031861;28;20186;-78
2022/10/10 14:17:58;;;;;;;10.93;3.37;;;;;;;;;;5027552;28;20620;-78
2022/10/10 14:20:23;;;;;;;8.43;3.60;;;;;;;;;;5049660;28;20263;-78
2022/10/10 14:22:49;;;;;;;17.90;4.53;;;;;;;;;;5032241;28;20177;-78
2022/10/10 14:25:15;;;;;;;12.60;4.87;;;;;;;;;;5033313;28;20189;-78
2022/10/10 14:27:40;;;;;;;14.20;4.30;;;;;;;;;;5028851;28;20186;-78
2022/10/10 14:30:05;;;;;;;8.43;3.40;;;;;;;;;;5028783;28;20464;-78
2022/10/10 14:32:31;;;;;;;11.80;4.07;;;;;;;;;;5024078;28;20203;-79
2022/10/10 14:34:56;;;;;;;11.20;3.77;;;;;;;;;;5032384;28;20191;-79
2022/10/10 14:37:22;;;;;;;7.77;3.43;;;;;;;;;;5049301;28;20176;-79
2022/10/10 14:39:48;;;;;;;11.90;3.97;;;;;;;;;;5032499;28;20200;-78
2022/10/10 14:42:14;;;;;;;9.43;3.20;;;;;;;;;;5025476;28;20183;-78
2022/10/10 14:44:39;;;;;;;13.10;3.30;;;;;;;;;;5032219;28;20167;-78